Etusivu
METAR-TAF:

METAR-TAF

Lentoasemat :

Rusk_County_Airport

Ladysmith, Wisconsin, Yhdysvallat

Leveyspiiri: 45-29-48N, Pituuspiiri: 091-00-01W, korkeus merenpinnasta: 377 m

Tämänhetkinen sää

Tämä raportti tehtiin 5 minuuttia sitten, kello 09.15 UTC
Tuuli 3 kn idästä
Lämpötila 14°C
Kosteus 100%
Ilmanpaine 1016 hPa
Näkyvyys: 16.1 km
selkeää

METAR: KRCX 130915Z AUTO 10003KT 10SM CLR 14/14 A3000 RMK AO2 T01360136

Aika: 04:20 (09:20 UTC)


TAF: puuttuu

Säähavainnot ja -ennusteet yli 4000 lentoasemalta (METAR- ja TAF-raportit).

Käytössä olevat sääasemat on merkitty karttaan keltaisilla ja punaisilla pisteillä.

Aseta hiiri pisteen päälle nähdäksesi sääaseman nimen.

Klikkaa sitten nähdäksesi säähavainnot ja -ennusteet.

Kartan vaihtaminen: klikkaa mustalla rastilla varustettuja vihreitä pisteitä, niin voit zoomata sisään; viivalla varustettua vihreää pistettä, niin voit zoomata ulos tai vihreitä nuolia, niin pääset viereisille kartoille.


METAR-TAF: